sensor_id;sensor_type;location;lat;lon;timestamp;P1;durP1;ratioP1;P2;durP2;ratioP2
63034;SDS011;59750;53.356;-1.458;2022-12-26T10:48:51;4.70;;;1.17;;
63034;SDS011;59750;53.356;-1.458;2022-12-26T10:51:18;4.43;;;1.00;;
63034;SDS011;59750;53.356;-1.458;2022-12-26T10:53:46;2.63;;;0.88;;
63034;SDS011;59750;53.356;-1.458;2022-12-26T10:56:18;4.40;;;0.70;;
63034;SDS011;59750;53.356;-1.458;2022-12-26T10:58:45;4.70;;;1.10;;
63034;SDS011;59750;53.356;-1.458;2022-12-26T11:06:41;4.13;;;0.95;;
63034;SDS011;59750;53.356;-1.458;2022-12-26T11:14:56;3.45;;;1.05;;
63034;SDS011;59750;53.356;-1.458;2022-12-26T11:17:28;3.63;;;0.75;;
63034;SDS011;59750;53.356;-1.458;2022-12-26T11:22:43;3.65;;;1.15;;
63034;SDS011;59750;53.356;-1.458;2022-12-26T11:27:42;2.63;;;1.00;;
63034;SDS011;59750;53.356;-1.458;2022-12-26T11:32:47;5.70;;;0.88;;
63034;SDS011;59750;53.356;-1.458;2022-12-26T11:35:35;1.25;;;0.60;;
63034;SDS011;59750;53.356;-1.458;2022-12-26T11:38:14;1.08;;;0.60;;
63034;SDS011;59750;53.356;-1.458;2022-12-26T11:41:01;1.40;;;0.57;;
63034;SDS011;59750;53.356;-1.458;2022-12-26T11:43:48;2.17;;;0.70;;
63034;SDS011;59750;53.356;-1.458;2022-12-26T11:46:16;2.22;;;0.60;;
63034;SDS011;59750;53.356;-1.458;2022-12-26T11:48:49;3.33;;;0.85;;
63034;SDS011;59750;53.356;-1.458;2022-12-26T11:51:30;3.80;;;0.70;;
63034;SDS011;59750;53.356;-1.458;2022-12-26T11:59:47;3.20;;;0.70;;
63034;SDS011;59750;53.356;-1.458;2022-12-26T12:02:17;1.85;;;0.75;;
63034;SDS011;59750;53.356;-1.458;2022-12-26T12:04:47;4.53;;;0.82;;
63034;SDS011;59750;53.356;-1.458;2022-12-26T12:10:30;2.78;;;0.77;;
63034;SDS011;59750;53.356;-1.458;2022-12-26T12:13:04;3.58;;;0.60;;
63034;SDS011;59750;53.356;-1.458;2022-12-26T12:24:16;2.67;;;0.68;;
63034;SDS011;59750;53.356;-1.458;2022-12-26T12:26:54;2.08;;;0.65;;
63034;SDS011;59750;53.356;-1.458;2022-12-26T12:38:27;4.97;;;0.90;;
63034;SDS011;59750;53.356;-1.458;2022-12-26T12:41:18;2.72;;;0.70;;
63034;SDS011;59750;53.356;-1.458;2022-12-26T12:43:55;1.52;;;0.70;;
63034;SDS011;59750;53.356;-1.458;2022-12-26T12:57:39;0.93;;;0.80;;
63034;SDS011;59750;53.356;-1.458;2022-12-26T13:00:20;2.00;;;1.05;;
63034;SDS011;59750;53.356;-1.458;2022-12-26T13:02:52;1.75;;;0.60;;
63034;SDS011;59750;53.356;-1.458;2022-12-26T13:11:14;3.47;;;0.70;;
63034;SDS011;59750;53.356;-1.458;2022-12-26T13:13:47;2.90;;;0.95;;
63034;SDS011;59750;53.356;-1.458;2022-12-26T13:16:18;4.22;;;0.80;;
63034;SDS011;59750;53.356;-1.458;2022-12-26T13:18:56;4.82;;;1.15;;
63034;SDS011;59750;53.356;-1.458;2022-12-26T13:21:27;3.85;;;1.00;;
63034;SDS011;59750;53.356;-1.458;2022-12-26T13:23:59;7.35;;;1.20;;
63034;SDS011;59750;53.356;-1.458;2022-12-26T13:27:03;4.40;;;0.82;;
63034;SDS011;59750;53.356;-1.458;2022-12-26T13:29:38;5.70;;;1.00;;
63034;SDS011;59750;53.356;-1.458;2022-12-26T13:34:52;4.50;;;0.95;;
63034;SDS011;59750;53.356;-1.458;2022-12-26T13:40:05;2.25;;;1.00;;
63034;SDS011;59750;53.356;-1.458;2022-12-26T13:42:44;5.18;;;0.95;;
63034;SDS011;59750;53.356;-1.458;2022-12-26T13:51:07;2.45;;;1.05;;
63034;SDS011;59750;53.356;-1.458;2022-12-26T13:54:12;4.00;;;1.13;;
63034;SDS011;59750;53.356;-1.458;2022-12-26T14:07:03;0.93;;;0.80;;
63034;SDS011;59750;53.356;-1.458;2022-12-26T14:12:28;3.33;;;1.27;;
63034;SDS011;59750;53.356;-1.458;2022-12-26T14:15:02;1.42;;;1.10;;
63034;SDS011;59750;53.356;-1.458;2022-12-26T14:20:53;3.05;;;0.70;;
63034;SDS011;59750;53.356;-1.458;2022-12-26T14:23:44;6.35;;;1.20;;
63034;SDS011;59750;53.356;-1.458;2022-12-26T14:43:11;3.00;;;0.90;;
63034;SDS011;59750;53.356;-1.458;2022-12-26T14:45:49;3.13;;;0.93;;
63034;SDS011;59750;53.356;-1.458;2022-12-26T14:50:46;1.85;;;0.82;;
63034;SDS011;59750;53.356;-1.458;2022-12-26T14:58:23;2.30;;;0.90;;
63034;SDS011;59750;53.356;-1.458;2022-12-26T15:00:56;5.13;;;1.20;;
63034;SDS011;59750;53.356;-1.458;2022-12-26T15:03:46;4.00;;;1.13;;
63034;SDS011;59750;53.356;-1.458;2022-12-26T15:06:29;3.75;;;1.13;;
63034;SDS011;59750;53.356;-1.458;2022-12-26T15:17:22;6.65;;;1.35;;
63034;SDS011;59750;53.356;-1.458;2022-12-26T15:23:01;4.22;;;1.40;;
63034;SDS011;59750;53.356;-1.458;2022-12-26T15:25:37;3.05;;;1.25;;
63034;SDS011;59750;53.356;-1.458;2022-12-26T15:33:36;5.15;;;1.50;;
63034;SDS011;59750;53.356;-1.458;2022-12-26T15:36:05;5.22;;;1.55;;
63034;SDS011;59750;53.356;-1.458;2022-12-26T15:38:52;1.85;;;1.00;;
63034;SDS011;59750;53.356;-1.458;2022-12-26T15:41:38;5.50;;;1.70;;
63034;SDS011;59750;53.356;-1.458;2022-12-26T15:46:48;4.55;;;1.23;;
63034;SDS011;59750;53.356;-1.458;2022-12-26T16:00:24;4.63;;;2.35;;
63034;SDS011;59750;53.356;-1.458;2022-12-26T16:11:15;4.40;;;1.50;;
63034;SDS011;59750;53.356;-1.458;2022-12-26T16:16:21;4.50;;;1.20;;
63034;SDS011;59750;53.356;-1.458;2022-12-26T16:18:51;4.40;;;1.75;;
63034;SDS011;59750;53.356;-1.458;2022-12-26T16:21:17;3.33;;;1.50;;
63034;SDS011;59750;53.356;-1.458;2022-12-26T16:24:06;5.40;;;1.40;;
63034;SDS011;59750;53.356;-1.458;2022-12-26T16:26:37;3.10;;;1.40;;
63034;SDS011;59750;53.356;-1.458;2022-12-26T16:29:06;4.13;;;1.30;;
63034;SDS011;59750;53.356;-1.458;2022-12-26T16:31:35;3.10;;;1.38;;
63034;SDS011;59750;53.356;-1.458;2022-12-26T16:34:02;4.00;;;1.50;;
63034;SDS011;59750;53.356;-1.458;2022-12-26T16:36:28;5.38;;;1.75;;
63034;SDS011;59750;53.356;-1.458;2022-12-26T16:39:00;6.28;;;1.55;;
63034;SDS011;59750;53.356;-1.458;2022-12-26T16:41:33;2.45;;;1.40;;
63034;SDS011;59750;53.356;-1.458;2022-12-26T16:44:27;2.80;;;1.45;;
63034;SDS011;59750;53.356;-1.458;2022-12-26T16:46:53;3.80;;;1.20;;
63034;SDS011;59750;53.356;-1.458;2022-12-26T16:49:20;4.40;;;1.40;;
63034;SDS011;59750;53.356;-1.458;2022-12-26T16:51:52;4.43;;;1.30;;
63034;SDS011;59750;53.356;-1.458;2022-12-26T16:56:47;4.68;;;1.13;;
63034;SDS011;59750;53.356;-1.458;2022-12-26T16:59:17;7.53;;;1.67;;
63034;SDS011;59750;53.356;-1.458;2022-12-26T17:01:47;5.35;;;2.20;;
63034;SDS011;59750;53.356;-1.458;2022-12-26T17:04:18;8.00;;;1.40;;
63034;SDS011;59750;53.356;-1.458;2022-12-26T17:06:50;4.03;;;1.60;;
63034;SDS011;59750;53.356;-1.458;2022-12-26T17:09:24;3.95;;;1.40;;
63034;SDS011;59750;53.356;-1.458;2022-12-26T17:11:55;3.25;;;1.50;;
63034;SDS011;59750;53.356;-1.458;2022-12-26T17:14:27;3.30;;;1.90;;
63034;SDS011;59750;53.356;-1.458;2022-12-26T17:16:58;2.97;;;1.67;;
63034;SDS011;59750;53.356;-1.458;2022-12-26T17:19:28;2.47;;;1.00;;
63034;SDS011;59750;53.356;-1.458;2022-12-26T17:30:40;3.85;;;1.25;;
63034;SDS011;59750;53.356;-1.458;2022-12-26T17:33:13;3.13;;;1.20;;
63034;SDS011;59750;53.356;-1.458;2022-12-26T17:35:40;3.38;;;1.38;;
63034;SDS011;59750;53.356;-1.458;2022-12-26T17:38:13;4.10;;;1.70;;
63034;SDS011;59750;53.356;-1.458;2022-12-26T17:40:44;4.03;;;1.40;;
63034;SDS011;59750;53.356;-1.458;2022-12-26T17:45:38;5.07;;;1.48;;
63034;SDS011;59750;53.356;-1.458;2022-12-26T17:48:06;6.90;;;1.30;;
63034;SDS011;59750;53.356;-1.458;2022-12-26T17:50:35;4.03;;;1.60;;
63034;SDS011;59750;53.356;-1.458;2022-12-26T17:53:04;3.05;;;1.27;;
63034;SDS011;59750;53.356;-1.458;2022-12-26T17:55:32;3.50;;;1.50;;
63034;SDS011;59750;53.356;-1.458;2022-12-26T17:57:59;3.15;;;1.25;;
63034;SDS011;59750;53.356;-1.458;2022-12-26T18:00:26;5.13;;;1.50;;
63034;SDS011;59750;53.356;-1.458;2022-12-26T18:02:54;3.20;;;1.30;;
63034;SDS011;59750;53.356;-1.458;2022-12-26T18:05:20;3.65;;;1.77;;
63034;SDS011;59750;53.356;-1.458;2022-12-26T18:07:48;3.70;;;1.70;;
63034;SDS011;59750;53.356;-1.458;2022-12-26T18:10:19;4.72;;;1.35;;
63034;SDS011;59750;53.356;-1.458;2022-12-26T18:12:47;4.05;;;1.33;;
63034;SDS011;59750;53.356;-1.458;2022-12-26T18:15:15;6.38;;;1.48;;
63034;SDS011;59750;53.356;-1.458;2022-12-26T18:17:42;5.97;;;1.30;;
63034;SDS011;59750;53.356;-1.458;2022-12-26T18:20:14;3.33;;;1.40;;
63034;SDS011;59750;53.356;-1.458;2022-12-26T18:22:42;6.25;;;1.73;;
63034;SDS011;59750;53.356;-1.458;2022-12-26T18:25:13;3.28;;;1.33;;
63034;SDS011;59750;53.356;-1.458;2022-12-26T18:27:41;4.53;;;1.50;;
63034;SDS011;59750;53.356;-1.458;2022-12-26T18:30:13;7.43;;;1.80;;
63034;SDS011;59750;53.356;-1.458;2022-12-26T18:32:42;8.80;;;1.88;;
63034;SDS011;59750;53.356;-1.458;2022-12-26T18:35:12;4.53;;;1.92;;
63034;SDS011;59750;53.356;-1.458;2022-12-26T18:37:39;6.88;;;2.40;;
63034;SDS011;59750;53.356;-1.458;2022-12-26T18:40:19;7.50;;;2.08;;
63034;SDS011;59750;53.356;-1.458;2022-12-26T18:42:54;5.70;;;1.80;;
63034;SDS011;59750;53.356;-1.458;2022-12-26T18:45:21;5.75;;;2.35;;
63034;SDS011;59750;53.356;-1.458;2022-12-26T18:47:48;5.07;;;1.73;;
63034;SDS011;59750;53.356;-1.458;2022-12-26T18:50:15;3.88;;;1.80;;
63034;SDS011;59750;53.356;-1.458;2022-12-26T18:52:42;5.22;;;1.58;;
63034;SDS011;59750;53.356;-1.458;2022-12-26T18:55:08;2.50;;;1.55;;
63034;SDS011;59750;53.356;-1.458;2022-12-26T18:57:35;2.97;;;1.40;;
63034;SDS011;59750;53.356;-1.458;2022-12-26T19:00:02;4.63;;;1.70;;
63034;SDS011;59750;53.356;-1.458;2022-12-26T19:02:29;6.78;;;1.60;;
63034;SDS011;59750;53.356;-1.458;2022-12-26T19:04:56;5.00;;;2.05;;
63034;SDS011;59750;53.356;-1.458;2022-12-26T19:07:23;6.63;;;1.75;;
63034;SDS011;59750;53.356;-1.458;2022-12-26T19:09:51;5.18;;;1.70;;
63034;SDS011;59750;53.356;-1.458;2022-12-26T19:12:20;9.75;;;2.00;;
63034;SDS011;59750;53.356;-1.458;2022-12-26T19:14:48;3.72;;;1.67;;
63034;SDS011;59750;53.356;-1.458;2022-12-26T19:17:15;8.40;;;1.80;;
63034;SDS011;59750;53.356;-1.458;2022-12-26T19:19:42;2.47;;;1.17;;
63034;SDS011;59750;53.356;-1.458;2022-12-26T19:22:08;2.13;;;1.60;;
63034;SDS011;59750;53.356;-1.458;2022-12-26T19:24:36;3.42;;;2.03;;
63034;SDS011;59750;53.356;-1.458;2022-12-26T19:27:03;2.95;;;1.20;;
63034;SDS011;59750;53.356;-1.458;2022-12-26T19:29:29;2.28;;;1.63;;
63034;SDS011;59750;53.356;-1.458;2022-12-26T19:31:56;3.33;;;1.40;;
63034;SDS011;59750;53.356;-1.458;2022-12-26T19:34:23;6.15;;;1.67;;
63034;SDS011;59750;53.356;-1.458;2022-12-26T19:36:49;2.97;;;1.33;;
63034;SDS011;59750;53.356;-1.458;2022-12-26T19:39:16;3.22;;;1.40;;
63034;SDS011;59750;53.356;-1.458;2022-12-26T19:41:42;2.58;;;1.50;;
63034;SDS011;59750;53.356;-1.458;2022-12-26T19:44:08;4.65;;;2.05;;
63034;SDS011;59750;53.356;-1.458;2022-12-26T19:46:35;6.68;;;1.92;;
63034;SDS011;59750;53.356;-1.458;2022-12-26T19:49:02;1.55;;;1.17;;
63034;SDS011;59750;53.356;-1.458;2022-12-26T19:51:28;4.72;;;1.50;;
63034;SDS011;59750;53.356;-1.458;2022-12-26T19:53:54;3.17;;;1.40;;
63034;SDS011;59750;53.356;-1.458;2022-12-26T19:56:21;4.63;;;1.10;;
63034;SDS011;59750;53.356;-1.458;2022-12-26T19:58:50;3.67;;;1.77;;
63034;SDS011;59750;53.356;-1.458;2022-12-26T20:01:19;5.35;;;1.70;;
63034;SDS011;59750;53.356;-1.458;2022-12-26T20:03:48;2.53;;;1.80;;
63034;SDS011;59750;53.356;-1.458;2022-12-26T20:06:16;8.90;;;1.85;;
63034;SDS011;59750;53.356;-1.458;2022-12-26T20:08:46;8.02;;;2.80;;
63034;SDS011;59750;53.356;-1.458;2022-12-26T20:11:15;8.52;;;2.45;;
63034;SDS011;59750;53.356;-1.458;2022-12-26T20:13:45;3.92;;;2.05;;
63034;SDS011;59750;53.356;-1.458;2022-12-26T20:16:14;6.95;;;2.38;;
63034;SDS011;59750;53.356;-1.458;2022-12-26T20:18:43;3.33;;;2.35;;
63034;SDS011;59750;53.356;-1.458;2022-12-26T20:21:11;2.85;;;1.92;;
63034;SDS011;59750;53.356;-1.458;2022-12-26T20:23:39;3.13;;;1.48;;
63034;SDS011;59750;53.356;-1.458;2022-12-26T20:26:08;3.05;;;1.70;;
63034;SDS011;59750;53.356;-1.458;2022-12-26T20:28:38;8.02;;;2.35;;
63034;SDS011;59750;53.356;-1.458;2022-12-26T20:31:06;4.78;;;1.88;;
63034;SDS011;59750;53.356;-1.458;2022-12-26T20:33:36;6.13;;;2.10;;
63034;SDS011;59750;53.356;-1.458;2022-12-26T20:38:32;4.95;;;2.00;;
63034;SDS011;59750;53.356;-1.458;2022-12-26T20:41:01;4.55;;;2.10;;
63034;SDS011;59750;53.356;-1.458;2022-12-26T20:43:27;5.25;;;2.10;;
63034;SDS011;59750;53.356;-1.458;2022-12-26T20:45:55;3.40;;;1.48;;
63034;SDS011;59750;53.356;-1.458;2022-12-26T20:48:22;3.17;;;1.23;;
63034;SDS011;59750;53.356;-1.458;2022-12-26T20:50:56;2.13;;;1.48;;
63034;SDS011;59750;53.356;-1.458;2022-12-26T20:53:24;3.03;;;1.75;;
63034;SDS011;59750;53.356;-1.458;2022-12-26T20:55:51;3.50;;;1.73;;
63034;SDS011;59750;53.356;-1.458;2022-12-26T20:58:19;1.75;;;1.60;;
63034;SDS011;59750;53.356;-1.458;2022-12-26T21:00:45;4.32;;;2.90;;
63034;SDS011;59750;53.356;-1.458;2022-12-26T21:03:13;2.40;;;1.98;;
63034;SDS011;59750;53.356;-1.458;2022-12-26T21:05:39;3.53;;;2.75;;
63034;SDS011;59750;53.356;-1.458;2022-12-26T21:08:05;3.90;;;2.60;;
63034;SDS011;59750;53.356;-1.458;2022-12-26T21:10:31;6.03;;;2.67;;
63034;SDS011;59750;53.356;-1.458;2022-12-26T21:12:58;3.75;;;2.70;;
63034;SDS011;59750;53.356;-1.458;2022-12-26T21:15:24;7.45;;;2.88;;
63034;SDS011;59750;53.356;-1.458;2022-12-26T21:17:50;7.47;;;2.50;;
63034;SDS011;59750;53.356;-1.458;2022-12-26T21:20:16;5.30;;;2.03;;
63034;SDS011;59750;53.356;-1.458;2022-12-26T21:22:42;4.82;;;2.70;;
63034;SDS011;59750;53.356;-1.458;2022-12-26T21:25:09;3.45;;;2.65;;
63034;SDS011;59750;53.356;-1.458;2022-12-26T21:27:35;5.80;;;3.35;;
63034;SDS011;59750;53.356;-1.458;2022-12-26T21:30:02;6.07;;;3.28;;
63034;SDS011;59750;53.356;-1.458;2022-12-26T21:32:29;5.53;;;3.53;;
63034;SDS011;59750;53.356;-1.458;2022-12-26T21:34:55;8.00;;;3.50;;
63034;SDS011;59750;53.356;-1.458;2022-12-26T21:37:21;4.03;;;3.13;;
63034;SDS011;59750;53.356;-1.458;2022-12-26T21:40:06;5.97;;;3.22;;
63034;SDS011;59750;53.356;-1.458;2022-12-26T21:42:32;4.53;;;2.90;;
63034;SDS011;59750;53.356;-1.458;2022-12-26T21:44:58;5.68;;;3.13;;
63034;SDS011;59750;53.356;-1.458;2022-12-26T21:47:24;6.22;;;2.70;;
63034;SDS011;59750;53.356;-1.458;2022-12-26T21:49:50;6.93;;;3.20;;
63034;SDS011;59750;53.356;-1.458;2022-12-26T21:52:16;5.13;;;2.60;;
63034;SDS011;59750;53.356;-1.458;2022-12-26T21:54:42;3.65;;;2.92;;
63034;SDS011;59750;53.356;-1.458;2022-12-26T21:57:27;4.68;;;2.88;;
63034;SDS011;59750;53.356;-1.458;2022-12-26T21:59:55;4.82;;;2.25;;
63034;SDS011;59750;53.356;-1.458;2022-12-26T22:02:22;4.95;;;1.90;;
63034;SDS011;59750;53.356;-1.458;2022-12-26T22:05:09;5.53;;;2.20;;
63034;SDS011;59750;53.356;-1.458;2022-12-26T22:07:36;3.25;;;2.03;;
63034;SDS011;59750;53.356;-1.458;2022-12-26T22:10:03;4.18;;;2.25;;
63034;SDS011;59750;53.356;-1.458;2022-12-26T22:12:30;2.95;;;1.83;;
63034;SDS011;59750;53.356;-1.458;2022-12-26T22:15:16;3.95;;;3.28;;
63034;SDS011;59750;53.356;-1.458;2022-12-26T22:18:01;4.15;;;2.17;;
63034;SDS011;59750;53.356;-1.458;2022-12-26T22:20:27;4.63;;;2.65;;
63034;SDS011;59750;53.356;-1.458;2022-12-26T22:22:53;4.63;;;2.80;;
63034;SDS011;59750;53.356;-1.458;2022-12-26T22:25:20;6.40;;;3.00;;
63034;SDS011;59750;53.356;-1.458;2022-12-26T22:27:46;6.57;;;3.88;;
63034;SDS011;59750;53.356;-1.458;2022-12-26T22:30:13;8.00;;;3.88;;
63034;SDS011;59750;53.356;-1.458;2022-12-26T22:32:39;3.67;;;3.38;;
63034;SDS011;59750;53.356;-1.458;2022-12-26T22:35:05;6.32;;;3.63;;
63034;SDS011;59750;53.356;-1.458;2022-12-26T22:37:31;7.03;;;3.75;;
63034;SDS011;59750;53.356;-1.458;2022-12-26T22:39:57;5.20;;;3.42;;
63034;SDS011;59750;53.356;-1.458;2022-12-26T22:42:22;10.27;;;3.38;;
63034;SDS011;59750;53.356;-1.458;2022-12-26T22:44:48;5.28;;;2.83;;
63034;SDS011;59750;53.356;-1.458;2022-12-26T22:47:15;7.65;;;3.20;;
63034;SDS011;59750;53.356;-1.458;2022-12-26T22:49:41;5.45;;;2.97;;
63034;SDS011;59750;53.356;-1.458;2022-12-26T22:52:07;6.47;;;2.90;;
63034;SDS011;59750;53.356;-1.458;2022-12-26T22:54:33;3.72;;;2.67;;
63034;SDS011;59750;53.356;-1.458;2022-12-26T22:57:00;4.35;;;2.65;;
63034;SDS011;59750;53.356;-1.458;2022-12-26T22:59:26;4.47;;;2.63;;
63034;SDS011;59750;53.356;-1.458;2022-12-26T23:01:52;11.50;;;3.08;;
63034;SDS011;59750;53.356;-1.458;2022-12-26T23:04:18;10.60;;;3.00;;
63034;SDS011;59750;53.356;-1.458;2022-12-26T23:06:44;6.25;;;3.13;;
63034;SDS011;59750;53.356;-1.458;2022-12-26T23:09:11;5.63;;;2.53;;
63034;SDS011;59750;53.356;-1.458;2022-12-26T23:11:39;7.45;;;3.17;;
63034;SDS011;59750;53.356;-1.458;2022-12-26T23:14:06;5.63;;;2.60;;
63034;SDS011;59750;53.356;-1.458;2022-12-26T23:22:30;8.18;;;2.35;;
63034;SDS011;59750;53.356;-1.458;2022-12-26T23:24:57;3.83;;;1.88;;
63034;SDS011;59750;53.356;-1.458;2022-12-26T23:27:23;6.00;;;2.40;;
63034;SDS011;59750;53.356;-1.458;2022-12-26T23:30:09;6.60;;;2.20;;
63034;SDS011;59750;53.356;-1.458;2022-12-26T23:32:44;5.72;;;2.53;;
63034;SDS011;59750;53.356;-1.458;2022-12-26T23:35:13;5.40;;;2.38;;
63034;SDS011;59750;53.356;-1.458;2022-12-26T23:37:39;2.95;;;2.15;;
63034;SDS011;59750;53.356;-1.458;2022-12-26T23:40:06;6.70;;;2.10;;
63034;SDS011;59750;53.356;-1.458;2022-12-26T23:42:35;4.40;;;1.77;;
63034;SDS011;59750;53.356;-1.458;2022-12-26T23:45:01;7.65;;;2.53;;
63034;SDS011;59750;53.356;-1.458;2022-12-26T23:47:28;7.03;;;2.95;;
63034;SDS011;59750;53.356;-1.458;2022-12-26T23:49:55;7.63;;;2.40;;
63034;SDS011;59750;53.356;-1.458;2022-12-26T23:52:21;5.22;;;2.22;;
63034;SDS011;59750;53.356;-1.458;2022-12-26T23:54:48;5.70;;;2.22;;
